sensor_id;sensor_type;location;lat;lon;timestamp;pressure;altitude;pressure_sealevel;temperature;humidity
57628;BME280;43451;49.060;10.616;2022-10-16T00:00:40;96686.81;;;13.79;100.00
57628;BME280;43451;49.060;10.616;2022-10-16T00:03:07;96690.78;;;13.75;100.00
57628;BME280;43451;49.060;10.616;2022-10-16T00:05:37;96697.84;;;13.72;100.00
57628;BME280;43451;49.060;10.616;2022-10-16T00:08:03;96695.53;;;13.70;100.00
57628;BME280;43451;49.060;10.616;2022-10-16T00:10:28;96693.22;;;13.69;100.00
57628;BME280;43451;49.060;10.616;2022-10-16T00:12:54;96702.59;;;13.68;100.00
57628;BME280;43451;49.060;10.616;2022-10-16T00:15:19;96698.31;;;13.67;100.00
57628;BME280;43451;49.060;10.616;2022-10-16T00:17:45;96701.81;;;13.67;100.00
57628;BME280;43451;49.060;10.616;2022-10-16T00:20:10;96701.53;;;13.85;100.00
57628;BME280;43451;49.060;10.616;2022-10-16T00:22:36;96702.28;;;13.89;100.00
57628;BME280;43451;49.060;10.616;2022-10-16T00:25:01;96682.91;;;14.04;100.00
57628;BME280;43451;49.060;10.616;2022-10-16T00:27:27;96683.09;;;14.16;100.00
57628;BME280;43451;49.060;10.616;2022-10-16T00:29:52;96688.09;;;14.22;100.00
57628;BME280;43451;49.060;10.616;2022-10-16T00:32:18;96675.91;;;14.26;100.00
57628;BME280;43451;49.060;10.616;2022-10-16T00:34:44;96682.22;;;14.23;100.00
57628;BME280;43451;49.060;10.616;2022-10-16T00:37:09;96671.66;;;14.25;100.00
57628;BME280;43451;49.060;10.616;2022-10-16T00:39:35;96686.31;;;14.35;100.00
57628;BME280;43451;49.060;10.616;2022-10-16T00:42:01;96695.34;;;14.32;100.00
57628;BME280;43451;49.060;10.616;2022-10-16T00:44:51;96700.03;;;14.31;100.00
57628;BME280;43451;49.060;10.616;2022-10-16T00:47:37;96691.34;;;14.36;100.00
57628;BME280;43451;49.060;10.616;2022-10-16T00:50:28;96692.91;;;14.37;100.00
57628;BME280;43451;49.060;10.616;2022-10-16T00:52:55;96701.63;;;14.29;100.00
57628;BME280;43451;49.060;10.616;2022-10-16T00:55:22;96697.84;;;14.23;100.00
57628;BME280;43451;49.060;10.616;2022-10-16T00:57:48;96710.31;;;14.24;100.00
57628;BME280;43451;49.060;10.616;2022-10-16T01:00:22;96713.28;;;14.09;100.00
57628;BME280;43451;49.060;10.616;2022-10-16T01:02:52;96709.47;;;14.03;100.00
57628;BME280;43451;49.060;10.616;2022-10-16T01:05:21;96707.50;;;14.04;100.00
57628;BME280;43451;49.060;10.616;2022-10-16T01:15:44;96708.19;;;14.11;100.00
57628;BME280;43451;49.060;10.616;2022-10-16T01:18:22;96719.81;;;14.15;100.00
57628;BME280;43451;49.060;10.616;2022-10-16T01:20:54;96708.00;;;14.22;100.00
57628;BME280;43451;49.060;10.616;2022-10-16T01:23:35;96702.09;;;14.24;100.00
57628;BME280;43451;49.060;10.616;2022-10-16T01:29:03;96693.97;;;14.20;100.00
57628;BME280;43451;49.060;10.616;2022-10-16T01:31:35;96697.06;;;14.22;100.00
57628;BME280;43451;49.060;10.616;2022-10-16T01:34:15;96708.41;;;14.21;100.00
57628;BME280;43451;49.060;10.616;2022-10-16T01:36:46;96713.53;;;14.19;100.00
57628;BME280;43451;49.060;10.616;2022-10-16T01:39:14;96714.41;;;14.12;100.00
57628;BME280;43451;49.060;10.616;2022-10-16T01:41:45;96722.03;;;14.24;100.00
57628;BME280;43451;49.060;10.616;2022-10-16T01:44:23;96720.53;;;14.20;100.00
57628;BME280;43451;49.060;10.616;2022-10-16T01:46:51;96730.69;;;14.19;100.00
57628;BME280;43451;49.060;10.616;2022-10-16T01:49:18;96720.66;;;14.12;100.00
57628;BME280;43451;49.060;10.616;2022-10-16T01:51:48;96720.59;;;14.16;100.00
57628;BME280;43451;49.060;10.616;2022-10-16T01:54:18;96730.44;;;14.10;100.00
57628;BME280;43451;49.060;10.616;2022-10-16T01:56:46;96736.97;;;14.16;100.00
57628;BME280;43451;49.060;10.616;2022-10-16T01:59:16;96722.81;;;14.25;100.00
57628;BME280;43451;49.060;10.616;2022-10-16T02:01:48;96714.84;;;14.34;100.00
57628;BME280;43451;49.060;10.616;2022-10-16T02:04:23;96706.22;;;14.35;100.00
57628;BME280;43451;49.060;10.616;2022-10-16T02:06:52;96707.88;;;14.29;100.00
57628;BME280;43451;49.060;10.616;2022-10-16T02:09:18;96725.88;;;14.27;100.00
57628;BME280;43451;49.060;10.616;2022-10-16T02:11:44;96723.03;;;14.34;100.00
57628;BME280;43451;49.060;10.616;2022-10-16T02:14:10;96722.56;;;14.39;100.00
57628;BME280;43451;49.060;10.616;2022-10-16T02:16:42;96720.72;;;14.32;100.00
57628;BME280;43451;49.060;10.616;2022-10-16T02:19:08;96722.75;;;14.28;100.00
57628;BME280;43451;49.060;10.616;2022-10-16T02:21:55;96722.81;;;14.25;100.00
57628;BME280;43451;49.060;10.616;2022-10-16T02:24:41;96716.56;;;14.24;100.00
57628;BME280;43451;49.060;10.616;2022-10-16T02:29:41;96727.00;;;14.29;100.00
57628;BME280;43451;49.060;10.616;2022-10-16T02:32:12;96727.59;;;14.17;100.00
57628;BME280;43451;49.060;10.616;2022-10-16T02:34:40;96726.88;;;14.13;100.00
57628;BME280;43451;49.060;10.616;2022-10-16T02:37:06;96724.41;;;14.22;100.00
57628;BME280;43451;49.060;10.616;2022-10-16T02:39:33;96720.47;;;14.23;100.00
57628;BME280;43451;49.060;10.616;2022-10-16T02:41:59;96722.84;;;14.21;100.00
57628;BME280;43451;49.060;10.616;2022-10-16T02:44:24;96714.28;;;14.19;100.00
57628;BME280;43451;49.060;10.616;2022-10-16T02:46:50;96717.41;;;14.21;100.00
57628;BME280;43451;49.060;10.616;2022-10-16T02:49:15;96714.28;;;14.19;100.00
57628;BME280;43451;49.060;10.616;2022-10-16T02:51:40;96716.41;;;14.08;100.00
57628;BME280;43451;49.060;10.616;2022-10-16T02:54:06;96724.84;;;13.93;100.00
57628;BME280;43451;49.060;10.616;2022-10-16T02:56:31;96724.22;;;13.82;100.00
57628;BME280;43451;49.060;10.616;2022-10-16T02:58:57;96732.16;;;13.73;100.00
57628;BME280;43451;49.060;10.616;2022-10-16T03:01:23;96735.34;;;13.68;100.00
57628;BME280;43451;49.060;10.616;2022-10-16T03:03:49;96730.22;;;13.70;100.00
57628;BME280;43451;49.060;10.616;2022-10-16T03:06:14;96738.09;;;13.68;100.00
57628;BME280;43451;49.060;10.616;2022-10-16T03:08:40;96731.13;;;13.90;100.00
57628;BME280;43451;49.060;10.616;2022-10-16T03:11:05;96724.97;;;13.86;100.00
57628;BME280;43451;49.060;10.616;2022-10-16T03:13:31;96729.47;;;13.97;100.00
57628;BME280;43451;49.060;10.616;2022-10-16T03:15:56;96722.69;;;14.05;100.00
57628;BME280;43451;49.060;10.616;2022-10-16T03:18:22;96723.25;;;13.96;100.00
57628;BME280;43451;49.060;10.616;2022-10-16T03:20:47;96718.56;;;13.97;100.00
57628;BME280;43451;49.060;10.616;2022-10-16T03:23:13;96720.16;;;13.94;100.00
57628;BME280;43451;49.060;10.616;2022-10-16T03:25:38;96731.59;;;13.85;100.00
57628;BME280;43451;49.060;10.616;2022-10-16T03:28:04;96735.09;;;13.86;100.00
57628;BME280;43451;49.060;10.616;2022-10-16T03:30:30;96743.50;;;13.99;100.00
57628;BME280;43451;49.060;10.616;2022-10-16T03:32:55;96742.19;;;14.07;100.00
57628;BME280;43451;49.060;10.616;2022-10-16T03:35:21;96744.09;;;14.10;100.00
57628;BME280;43451;49.060;10.616;2022-10-16T03:37:47;96750.28;;;14.14;100.00
57628;BME280;43451;49.060;10.616;2022-10-16T03:40:12;96755.84;;;14.07;100.00
57628;BME280;43451;49.060;10.616;2022-10-16T03:42:38;96764.41;;;14.09;100.00
57628;BME280;43451;49.060;10.616;2022-10-16T03:45:04;96762.00;;;14.14;100.00
57628;BME280;43451;49.060;10.616;2022-10-16T03:47:30;96758.19;;;14.08;100.00
57628;BME280;43451;49.060;10.616;2022-10-16T03:49:58;96761.31;;;14.07;100.00
57628;BME280;43451;49.060;10.616;2022-10-16T03:52:24;96760.03;;;13.88;100.00
57628;BME280;43451;49.060;10.616;2022-10-16T03:54:49;96765.59;;;13.81;100.00
57628;BME280;43451;49.060;10.616;2022-10-16T03:57:14;96758.19;;;13.81;100.00
57628;BME280;43451;49.060;10.616;2022-10-16T03:59:40;96755.81;;;13.83;100.00
57628;BME280;43451;49.060;10.616;2022-10-16T04:02:05;96740.97;;;13.84;100.00
57628;BME280;43451;49.060;10.616;2022-10-16T04:04:31;96738.19;;;13.88;100.00
57628;BME280;43451;49.060;10.616;2022-10-16T04:06:56;96724.38;;;13.99;100.00
57628;BME280;43451;49.060;10.616;2022-10-16T04:09:22;96718.69;;;13.86;100.00
57628;BME280;43451;49.060;10.616;2022-10-16T04:11:47;96721.59;;;13.75;100.00
57628;BME280;43451;49.060;10.616;2022-10-16T04:14:12;96713.59;;;13.88;100.00
57628;BME280;43451;49.060;10.616;2022-10-16T04:16:38;96706.22;;;13.85;100.00
57628;BME280;43451;49.060;10.616;2022-10-16T04:19:03;96714.03;;;13.86;100.00
57628;BME280;43451;49.060;10.616;2022-10-16T04:21:29;96714.38;;;13.88;100.00
57628;BME280;43451;49.060;10.616;2022-10-16T04:23:54;96730.22;;;13.74;100.00
57628;BME280;43451;49.060;10.616;2022-10-16T04:26:20;96723.56;;;13.75;100.00
57628;BME280;43451;49.060;10.616;2022-10-16T04:28:45;96740.81;;;13.68;100.00
57628;BME280;43451;49.060;10.616;2022-10-16T04:31:11;96745.41;;;13.75;100.00
57628;BME280;43451;49.060;10.616;2022-10-16T04:33:36;96756.06;;;13.65;100.00
57628;BME280;43451;49.060;10.616;2022-10-16T04:36:03;96756.81;;;13.66;100.00
57628;BME280;43451;49.060;10.616;2022-10-16T04:38:29;96765.13;;;13.59;100.00
57628;BME280;43451;49.060;10.616;2022-10-16T04:40:54;96769.91;;;13.51;100.00
57628;BME280;43451;49.060;10.616;2022-10-16T04:43:20;96773.06;;;13.46;100.00
57628;BME280;43451;49.060;10.616;2022-10-16T04:45:46;96761.78;;;13.44;100.00
57628;BME280;43451;49.060;10.616;2022-10-16T04:48:11;96770.78;;;13.41;100.00
57628;BME280;43451;49.060;10.616;2022-10-16T04:50:37;96763.69;;;13.47;100.00
57628;BME280;43451;49.060;10.616;2022-10-16T04:53:03;96758.00;;;13.65;100.00
57628;BME280;43451;49.060;10.616;2022-10-16T04:55:28;96762.56;;;13.75;100.00
57628;BME280;43451;49.060;10.616;2022-10-16T04:57:54;96749.81;;;13.65;100.00
57628;BME280;43451;49.060;10.616;2022-10-16T05:00:19;96758.94;;;13.55;100.00
57628;BME280;43451;49.060;10.616;2022-10-16T05:02:45;96767.63;;;13.46;100.00
57628;BME280;43451;49.060;10.616;2022-10-16T05:05:10;96773.22;;;13.35;100.00
57628;BME280;43451;49.060;10.616;2022-10-16T05:07:37;96777.09;;;13.34;100.00
57628;BME280;43451;49.060;10.616;2022-10-16T05:10:03;96785.56;;;13.43;100.00
57628;BME280;43451;49.060;10.616;2022-10-16T05:12:28;96785.34;;;13.31;100.00
57628;BME280;43451;49.060;10.616;2022-10-16T05:14:53;96790.13;;;13.16;100.00
57628;BME280;43451;49.060;10.616;2022-10-16T05:17:26;96793.00;;;13.05;100.00
57628;BME280;43451;49.060;10.616;2022-10-16T05:19:51;96798.91;;;12.96;100.00
57628;BME280;43451;49.060;10.616;2022-10-16T05:22:17;96786.84;;;12.94;100.00
57628;BME280;43451;49.060;10.616;2022-10-16T05:24:43;96790.81;;;12.89;100.00
57628;BME280;43451;49.060;10.616;2022-10-16T05:27:08;96793.13;;;12.94;100.00
57628;BME280;43451;49.060;10.616;2022-10-16T05:29:33;96793.72;;;13.09;100.00
57628;BME280;43451;49.060;10.616;2022-10-16T05:31:59;96791.31;;;13.15;100.00
57628;BME280;43451;49.060;10.616;2022-10-16T05:34:24;96792.88;;;13.16;100.00
57628;BME280;43451;49.060;10.616;2022-10-16T05:36:50;96790.41;;;13.29;100.00
57628;BME280;43451;49.060;10.616;2022-10-16T05:39:16;96792.75;;;13.30;100.00
57628;BME280;43451;49.060;10.616;2022-10-16T05:41:42;96805.16;;;13.38;100.00
57628;BME280;43451;49.060;10.616;2022-10-16T05:44:08;96794.91;;;13.46;100.00
57628;BME280;43451;49.060;10.616;2022-10-16T05:46:33;96796.41;;;13.51;100.00
57628;BME280;43451;49.060;10.616;2022-10-16T05:48:59;96798.44;;;13.43;100.00
57628;BME280;43451;49.060;10.616;2022-10-16T05:51:24;96812.13;;;13.39;100.00
57628;BME280;43451;49.060;10.616;2022-10-16T05:53:50;96809.16;;;13.27;100.00
57628;BME280;43451;49.060;10.616;2022-10-16T05:56:15;96806.06;;;13.21;100.00
57628;BME280;43451;49.060;10.616;2022-10-16T05:58:41;96816.31;;;13.10;100.00
57628;BME280;43451;49.060;10.616;2022-10-16T06:01:10;96825.34;;;13.03;100.00
57628;BME280;43451;49.060;10.616;2022-10-16T06:03:36;96828.16;;;12.96;100.00
57628;BME280;43451;49.060;10.616;2022-10-16T06:06:16;96829.72;;;12.93;100.00
57628;BME280;43451;49.060;10.616;2022-10-16T06:08:42;96835.19;;;12.93;100.00
57628;BME280;43451;49.060;10.616;2022-10-16T06:11:11;96829.72;;;12.93;100.00
57628;BME280;43451;49.060;10.616;2022-10-16T06:13:38;96827.75;;;12.94;100.00
57628;BME280;43451;49.060;10.616;2022-10-16T06:16:06;96835.94;;;12.97;100.00
57628;BME280;43451;49.060;10.616;2022-10-16T06:18:32;96833.56;;;12.99;100.00
57628;BME280;43451;49.060;10.616;2022-10-16T06:20:57;96831.22;;;13.01;100.00
57628;BME280;43451;49.060;10.616;2022-10-16T06:23:23;96824.94;;;13.05;100.00
57628;BME280;43451;49.060;10.616;2022-10-16T06:25:49;96835.06;;;13.08;100.00
57628;BME280;43451;49.060;10.616;2022-10-16T06:28:14;96836.19;;;13.10;100.00
57628;BME280;43451;49.060;10.616;2022-10-16T06:30:40;96839.66;;;13.14;100.00
57628;BME280;43451;49.060;10.616;2022-10-16T06:33:06;96829.44;;;13.22;100.00
57628;BME280;43451;49.060;10.616;2022-10-16T06:35:31;96837.06;;;13.41;100.00
57628;BME280;43451;49.060;10.616;2022-10-16T06:37:57;96842.38;;;13.56;100.00
57628;BME280;43451;49.060;10.616;2022-10-16T06:40:23;96841.34;;;13.77;100.00
57628;BME280;43451;49.060;10.616;2022-10-16T06:42:48;96844.41;;;13.79;100.00
57628;BME280;43451;49.060;10.616;2022-10-16T06:45:14;96844.03;;;13.80;100.00
57628;BME280;43451;49.060;10.616;2022-10-16T06:47:39;96843.28;;;13.76;100.00
57628;BME280;43451;49.060;10.616;2022-10-16T06:50:05;96841.78;;;13.72;100.00
57628;BME280;43451;49.060;10.616;2022-10-16T06:52:34;96854.63;;;13.75;100.00
57628;BME280;43451;49.060;10.616;2022-10-16T06:54:59;96862.38;;;13.76;100.00
57628;BME280;43451;49.060;10.616;2022-10-16T06:57:25;96868.59;;;13.80;100.00
57628;BME280;43451;49.060;10.616;2022-10-16T06:59:51;96868.13;;;13.85;100.00
57628;BME280;43451;49.060;10.616;2022-10-16T07:02:16;96878.63;;;13.90;100.00
57628;BME280;43451;49.060;10.616;2022-10-16T07:04:42;96877.75;;;13.97;100.00
57628;BME280;43451;49.060;10.616;2022-10-16T07:07:07;96887.41;;;14.05;100.00
57628;BME280;43451;49.060;10.616;2022-10-16T07:09:32;96879.94;;;14.09;100.00
57628;BME280;43451;49.060;10.616;2022-10-16T07:11:58;96877.09;;;14.16;100.00
57628;BME280;43451;49.060;10.616;2022-10-16T07:14:23;96883.72;;;14.19;100.00
57628;BME280;43451;49.060;10.616;2022-10-16T07:16:49;96884.44;;;14.23;100.00
57628;BME280;43451;49.060;10.616;2022-10-16T07:19:15;96884.91;;;14.45;100.00
57628;BME280;43451;49.060;10.616;2022-10-16T07:21:42;96893.72;;;14.60;100.00
57628;BME280;43451;49.060;10.616;2022-10-16T07:24:15;96898.91;;;14.51;100.00
57628;BME280;43451;49.060;10.616;2022-10-16T07:26:43;96888.63;;;14.62;100.00
57628;BME280;43451;49.060;10.616;2022-10-16T07:29:16;96889.31;;;14.66;100.00
57628;BME280;43451;49.060;10.616;2022-10-16T07:31:43;96901.97;;;14.56;100.00
57628;BME280;43451;49.060;10.616;2022-10-16T07:34:10;96903.81;;;14.63;100.00
57628;BME280;43451;49.060;10.616;2022-10-16T07:36:36;96898.28;;;14.67;100.00
57628;BME280;43451;49.060;10.616;2022-10-16T07:39:02;96903.72;;;14.70;100.00
57628;BME280;43451;49.060;10.616;2022-10-16T07:41:28;96905.31;;;14.68;100.00
57628;BME280;43451;49.060;10.616;2022-10-16T07:43:54;96904.66;;;14.83;100.00
57628;BME280;43451;49.060;10.616;2022-10-16T07:46:21;96895.88;;;14.96;100.00
57628;BME280;43451;49.060;10.616;2022-10-16T07:48:47;96902.78;;;15.04;100.00
57628;BME280;43451;49.060;10.616;2022-10-16T07:51:22;96906.94;;;15.12;100.00
57628;BME280;43451;49.060;10.616;2022-10-16T07:53:48;96915.53;;;15.14;100.00
57628;BME280;43451;49.060;10.616;2022-10-16T07:56:15;96915.66;;;15.07;100.00
57628;BME280;43451;49.060;10.616;2022-10-16T07:58:41;96921.47;;;15.09;100.00
57628;BME280;43451;49.060;10.616;2022-10-16T08:01:08;96923.53;;;15.25;100.00
57628;BME280;43451;49.060;10.616;2022-10-16T08:03:34;96924.50;;;15.38;100.00
57628;BME280;43451;49.060;10.616;2022-10-16T08:06:00;96928.94;;;15.52;100.00
57628;BME280;43451;49.060;10.616;2022-10-16T08:08:26;96930.28;;;15.67;100.00
57628;BME280;43451;49.060;10.616;2022-10-16T08:10:52;96933.81;;;15.64;100.00
57628;BME280;43451;49.060;10.616;2022-10-16T08:13:18;96937.44;;;15.81;100.00
57628;BME280;43451;49.060;10.616;2022-10-16T08:15:44;96936.44;;;15.91;100.00
57628;BME280;43451;49.060;10.616;2022-10-16T08:18:12;96931.03;;;15.88;100.00
57628;BME280;43451;49.060;10.616;2022-10-16T08:20:38;96933.78;;;15.88;100.00
57628;BME280;43451;49.060;10.616;2022-10-16T08:23:04;96949.25;;;15.98;100.00
57628;BME280;43451;49.060;10.616;2022-10-16T08:25:30;96952.19;;;15.87;100.00
57628;BME280;43451;49.060;10.616;2022-10-16T08:27:55;96956.53;;;15.85;100.00
57628;BME280;43451;49.060;10.616;2022-10-16T08:30:22;96956.22;;;15.83;100.00
57628;BME280;43451;49.060;10.616;2022-10-16T08:32:49;96959.97;;;15.89;100.00
57628;BME280;43451;49.060;10.616;2022-10-16T08:35:15;96960.41;;;16.07;100.00
57628;BME280;43451;49.060;10.616;2022-10-16T08:37:41;96960.63;;;16.16;100.00
57628;BME280;43451;49.060;10.616;2022-10-16T08:40:23;96966.81;;;16.20;100.00
57628;BME280;43451;49.060;10.616;2022-10-16T08:48:17;96954.56;;;16.45;100.00
57628;BME280;43451;49.060;10.616;2022-10-16T08:50:43;96967.97;;;16.59;100.00
57628;BME280;43451;49.060;10.616;2022-10-16T08:53:24;96971.09;;;16.78;100.00
57628;BME280;43451;49.060;10.616;2022-10-16T08:55:53;96965.13;;;16.83;100.00
57628;BME280;43451;49.060;10.616;2022-10-16T09:00:51;96978.78;;;16.66;100.00
57628;BME280;43451;49.060;10.616;2022-10-16T09:06:17;96990.81;;;16.73;100.00
57628;BME280;43451;49.060;10.616;2022-10-16T09:12:04;96984.28;;;16.66;100.00
57628;BME280;43451;49.060;10.616;2022-10-16T09:14:39;96989.59;;;16.74;100.00
57628;BME280;43451;49.060;10.616;2022-10-16T09:17:39;96979.84;;;16.73;100.00
57628;BME280;43451;49.060;10.616;2022-10-16T09:20:23;96968.75;;;16.96;100.00
57628;BME280;43451;49.060;10.616;2022-10-16T09:23:00;96972.69;;;17.11;100.00
57628;BME280;43451;49.060;10.616;2022-10-16T09:25:33;96967.31;;;17.24;100.00
57628;BME280;43451;49.060;10.616;2022-10-16T09:28:00;96971.84;;;17.31;100.00
57628;BME280;43451;49.060;10.616;2022-10-16T09:30:29;96964.81;;;17.30;100.00
57628;BME280;43451;49.060;10.616;2022-10-16T09:32:57;96965.69;;;17.27;100.00
57628;BME280;43451;49.060;10.616;2022-10-16T09:35:35;96968.06;;;17.25;100.00
57628;BME280;43451;49.060;10.616;2022-10-16T09:38:01;96974.78;;;17.24;100.00
57628;BME280;43451;49.060;10.616;2022-10-16T09:40:33;96970.41;;;17.26;100.00
57628;BME280;43451;49.060;10.616;2022-10-16T09:46:01;96979.41;;;17.43;100.00
57628;BME280;43451;49.060;10.616;2022-10-16T09:48:36;96981.72;;;17.45;100.00
57628;BME280;43451;49.060;10.616;2022-10-16T09:51:04;96984.84;;;17.76;100.00
57628;BME280;43451;49.060;10.616;2022-10-16T09:53:44;96977.63;;;17.82;100.00
57628;BME280;43451;49.060;10.616;2022-10-16T09:56:11;96992.41;;;17.88;100.00
57628;BME280;43451;49.060;10.616;2022-10-16T09:58:49;96996.88;;;17.98;100.00
57628;BME280;43451;49.060;10.616;2022-10-16T10:01:16;96992.31;;;17.92;100.00
57628;BME280;43451;49.060;10.616;2022-10-16T10:03:43;96990.91;;;18.00;100.00
57628;BME280;43451;49.060;10.616;2022-10-16T10:06:19;96993.28;;;17.85;98.54
57628;BME280;43451;49.060;10.616;2022-10-16T10:09:00;96995.16;;;17.88;98.94
57628;BME280;43451;49.060;10.616;2022-10-16T10:14:09;96982.28;;;17.85;100.00
57628;BME280;43451;49.060;10.616;2022-10-16T10:16:39;96995.50;;;17.90;100.00
57628;BME280;43451;49.060;10.616;2022-10-16T10:19:04;96995.41;;;17.94;100.00
57628;BME280;43451;49.060;10.616;2022-10-16T10:21:38;97007.94;;;17.95;99.29
57628;BME280;43451;49.060;10.616;2022-10-16T10:24:03;97004.31;;;17.98;100.00
57628;BME280;43451;49.060;10.616;2022-10-16T10:26:32;96999.56;;;18.15;100.00
57628;BME280;43451;49.060;10.616;2022-10-16T10:32:05;96998.50;;;18.25;98.07
57628;BME280;43451;49.060;10.616;2022-10-16T10:34:50;97001.28;;;18.38;98.38
57628;BME280;43451;49.060;10.616;2022-10-16T10:40:49;96990.28;;;18.38;97.76
57628;BME280;43451;49.060;10.616;2022-10-16T10:45:44;97009.31;;;18.87;97.56
57628;BME280;43451;49.060;10.616;2022-10-16T10:51:13;97015.38;;;18.94;93.99
57628;BME280;43451;49.060;10.616;2022-10-16T10:53:50;97014.94;;;18.83;96.05
57628;BME280;43451;49.060;10.616;2022-10-16T11:07:34;97006.34;;;18.39;96.22
57628;BME280;43451;49.060;10.616;2022-10-16T11:10:18;97008.78;;;18.50;97.69
57628;BME280;43451;49.060;10.616;2022-10-16T11:12:49;97012.09;;;18.58;97.58
57628;BME280;43451;49.060;10.616;2022-10-16T11:15:38;97013.97;;;18.61;95.19
57628;BME280;43451;49.060;10.616;2022-10-16T11:18:52;97013.22;;;18.60;98.51
57628;BME280;43451;49.060;10.616;2022-10-16T11:20:56;97017.31;;;18.68;95.69
57628;BME280;43451;49.060;10.616;2022-10-16T11:23:38;97025.47;;;18.72;94.89
57628;BME280;43451;49.060;10.616;2022-10-16T11:26:12;97019.13;;;18.75;95.80
57628;BME280;43451;49.060;10.616;2022-10-16T11:28:48;97017.69;;;18.83;97.95
57628;BME280;43451;49.060;10.616;2022-10-16T11:31:24;97023.97;;;18.96;98.09
57628;BME280;43451;49.060;10.616;2022-10-16T11:36:45;97032.44;;;19.40;92.38
57628;BME280;43451;49.060;10.616;2022-10-16T11:39:22;97019.31;;;19.70;92.77
57628;BME280;43451;49.060;10.616;2022-10-16T11:41:52;97021.75;;;19.68;95.07
57628;BME280;43451;49.060;10.616;2022-10-16T11:44:46;97014.63;;;19.92;94.29
57628;BME280;43451;49.060;10.616;2022-10-16T11:49:52;97014.84;;;20.20;89.18
57628;BME280;43451;49.060;10.616;2022-10-16T11:52:36;97009.97;;;20.24;88.79
57628;BME280;43451;49.060;10.616;2022-10-16T11:55:40;97012.34;;;20.13;88.77
57628;BME280;43451;49.060;10.616;2022-10-16T11:58:01;97013.31;;;20.19;88.38
57628;BME280;43451;49.060;10.616;2022-10-16T12:08:59;97015.84;;;20.13;88.92
57628;BME280;43451;49.060;10.616;2022-10-16T12:14:17;97008.00;;;20.47;84.85
57628;BME280;43451;49.060;10.616;2022-10-16T12:16:57;97009.78;;;20.40;84.93
57628;BME280;43451;49.060;10.616;2022-10-16T12:19:29;97006.69;;;20.38;88.06
57628;BME280;43451;49.060;10.616;2022-10-16T12:21:57;96998.19;;;20.46;83.20
57628;BME280;43451;49.060;10.616;2022-10-16T12:24:38;97002.63;;;20.65;86.59
57628;BME280;43451;49.060;10.616;2022-10-16T12:27:28;96989.75;;;20.71;85.75
57628;BME280;43451;49.060;10.616;2022-10-16T12:29:56;96997.72;;;20.69;82.36
57628;BME280;43451;49.060;10.616;2022-10-16T12:32:35;96997.91;;;20.75;85.10
57628;BME280;43451;49.060;10.616;2022-10-16T12:35:03;96994.31;;;20.65;86.96
57628;BME280;43451;49.060;10.616;2022-10-16T12:37:34;96987.66;;;20.84;82.63
57628;BME280;43451;49.060;10.616;2022-10-16T12:40:34;96988.66;;;21.00;82.75
57628;BME280;43451;49.060;10.616;2022-10-16T12:42:58;96996.03;;;21.03;84.00
57628;BME280;43451;49.060;10.616;2022-10-16T12:47:52;96996.47;;;21.01;83.77
57628;BME280;43451;49.060;10.616;2022-10-16T12:50:28;96994.16;;;20.91;82.11
57628;BME280;43451;49.060;10.616;2022-10-16T12:52:55;96994.00;;;20.63;81.97
57628;BME280;43451;49.060;10.616;2022-10-16T12:55:22;96995.41;;;20.46;81.62
57628;BME280;43451;49.060;10.616;2022-10-16T12:58:18;97001.28;;;20.13;85.02
57628;BME280;43451;49.060;10.616;2022-10-16T13:00:56;96996.94;;;20.03;85.43
57628;BME280;43451;49.060;10.616;2022-10-16T13:03:48;97007.56;;;19.91;85.97
57628;BME280;43451;49.060;10.616;2022-10-16T13:09:15;97011.44;;;19.81;92.03
57628;BME280;43451;49.060;10.616;2022-10-16T13:22:45;97011.19;;;20.23;91.58
57628;BME280;43451;49.060;10.616;2022-10-16T13:30:27;97018.47;;;20.52;86.45
57628;BME280;43451;49.060;10.616;2022-10-16T13:33:07;97015.94;;;20.45;85.46
57628;BME280;43451;49.060;10.616;2022-10-16T13:35:37;97024.41;;;20.50;84.87
57628;BME280;43451;49.060;10.616;2022-10-16T13:38:14;97016.69;;;20.45;87.67
57628;BME280;43451;49.060;10.616;2022-10-16T13:43:45;97021.75;;;20.59;84.79
57628;BME280;43451;49.060;10.616;2022-10-16T13:48:40;97027.00;;;20.67;85.92
57628;BME280;43451;49.060;10.616;2022-10-16T13:51:16;97021.22;;;20.52;86.50
57628;BME280;43451;49.060;10.616;2022-10-16T13:53:43;97021.41;;;20.57;85.29
57628;BME280;43451;49.060;10.616;2022-10-16T13:56:14;97013.06;;;20.70;86.09
57628;BME280;43451;49.060;10.616;2022-10-16T13:58:41;97019.34;;;20.71;86.72
57628;BME280;43451;49.060;10.616;2022-10-16T14:01:28;97026.06;;;20.92;82.56
57628;BME280;43451;49.060;10.616;2022-10-16T14:04:04;97031.25;;;20.90;83.99
57628;BME280;43451;49.060;10.616;2022-10-16T14:06:30;97029.88;;;20.85;83.98
57628;BME280;43451;49.060;10.616;2022-10-16T14:09:08;97031.22;;;20.80;84.59
57628;BME280;43451;49.060;10.616;2022-10-16T14:11:44;97040.03;;;20.66;83.71
57628;BME280;43451;49.060;10.616;2022-10-16T14:14:12;97032.69;;;20.50;85.97
57628;BME280;43451;49.060;10.616;2022-10-16T14:16:41;97036.09;;;20.32;86.47
57628;BME280;43451;49.060;10.616;2022-10-16T14:21:40;97030.03;;;20.03;90.82
57628;BME280;43451;49.060;10.616;2022-10-16T14:24:14;97027.06;;;19.97;91.69
57628;BME280;43451;49.060;10.616;2022-10-16T14:26:49;97038.47;;;19.86;93.21
57628;BME280;43451;49.060;10.616;2022-10-16T14:29:19;97036.72;;;19.80;94.44
57628;BME280;43451;49.060;10.616;2022-10-16T14:32:22;97034.84;;;19.77;95.22
57628;BME280;43451;49.060;10.616;2022-10-16T14:34:53;97036.19;;;19.72;95.30
57628;BME280;43451;49.060;10.616;2022-10-16T14:37:30;97044.13;;;19.70;94.60